createdAt,value
2018-04-17T00:04:38.303Z,74.43
2018-04-17T00:10:02.072Z,81.78
2018-04-17T00:18:25.489Z,71.65
2018-04-17T00:20:58.166Z,74.15
2018-04-17T00:23:29.394Z,83.15
2018-04-17T00:26:00.601Z,72.65
2018-04-17T00:28:32.427Z,74.72
2018-04-17T00:31:04.452Z,80.53
2018-04-17T00:33:35.760Z,75.45
2018-04-17T00:36:07.019Z,75.75
2018-04-17T00:38:38.642Z,76.75
2018-04-17T00:41:10.113Z,71.85
2018-04-17T00:43:42.279Z,74.15
2018-04-17T00:46:15.115Z,68.50
2018-04-17T00:48:46.722Z,69.03
2018-04-17T00:51:22.288Z,75.97
2018-04-17T00:53:55.677Z,69.70
2018-04-17T00:56:27.053Z,76.70
2018-04-17T00:58:58.452Z,73.22
2018-04-17T01:01:30.244Z,72.18
2018-04-17T01:04:02.160Z,69.85
2018-04-17T01:06:34.317Z,69.53
2018-04-17T01:09:09.096Z,69.68
2018-04-17T01:11:40.341Z,78.05
2018-04-17T01:14:11.487Z,68.68
2018-04-17T01:16:43.070Z,69.97
2018-04-17T01:19:14.255Z,73.95
2018-04-17T01:21:45.361Z,60.58
2018-04-17T01:24:17.495Z,65.15
2018-04-17T01:26:48.685Z,66.20
2018-04-17T01:29:20.001Z,68.28
2018-04-17T01:31:51.242Z,75.78
2018-04-17T01:34:22.567Z,69.00
2018-04-17T01:36:53.895Z,70.00
2018-04-17T01:39:25.110Z,66.07
2018-04-17T01:41:56.266Z,67.15
2018-04-17T01:44:27.517Z,67.35
2018-04-17T01:46:59.035Z,67.87
2018-04-17T01:49:30.172Z,63.95
2018-04-17T01:52:01.984Z,68.25
2018-04-17T01:54:33.815Z,69.12
2018-04-17T01:57:10.072Z,88.07
2018-04-17T01:59:41.354Z,72.22
2018-04-17T02:02:13.502Z,73.05
2018-04-17T02:04:45.261Z,69.07
2018-04-17T02:07:18.300Z,70.72
2018-04-17T02:09:56.292Z,79.65
2018-04-17T02:12:30.586Z,70.70
2018-04-17T02:15:02.390Z,70.68
2018-04-17T02:17:34.743Z,73.10
2018-04-17T02:20:06.755Z,74.43
2018-04-17T02:22:50.388Z,86.25
2018-04-17T02:25:22.409Z,72.95
2018-04-17T02:27:53.854Z,67.10
2018-04-17T02:30:25.083Z,72.22
2018-04-17T02:32:57.137Z,64.47
2018-04-17T02:35:28.338Z,61.90
2018-04-17T02:44:25.460Z,65.40
2018-04-17T02:47:20.968Z,65.22
2018-04-17T03:02:22.369Z,64.85
2018-04-17T03:11:17.287Z,80.45
2018-04-17T03:32:02.123Z,58.80
2018-04-17T03:35:10.397Z,61.72
2018-04-17T03:37:46.183Z,60.80
2018-04-17T03:40:17.363Z,61.53
2018-04-17T03:42:49.259Z,66.65
2018-04-17T03:45:20.790Z,61.90
2018-04-17T03:47:52.147Z,60.95
2018-04-17T03:50:23.688Z,68.37
2018-04-17T03:52:55.055Z,69.10
2018-04-17T03:55:26.650Z,73.35
2018-04-17T03:57:59.096Z,70.35
2018-04-17T04:00:31.602Z,74.07
2018-04-17T04:03:03.147Z,72.68
2018-04-17T04:05:34.517Z,67.85
2018-04-17T04:08:05.572Z,77.85
2018-04-17T04:10:36.248Z,71.95
2018-04-17T04:13:07.511Z,65.22
2018-04-17T04:15:38.256Z,70.30
2018-04-17T04:20:21.953Z,64.78
2018-04-17T04:25:07.492Z,67.60
2018-04-17T04:27:38.224Z,73.37
2018-04-17T04:30:08.789Z,66.72
2018-04-17T04:32:39.516Z,70.30
2018-04-17T04:35:10.185Z,63.40
2018-04-17T04:37:40.844Z,62.30
2018-04-17T04:40:11.543Z,64.15
2018-04-17T04:42:42.153Z,64.97
2018-04-17T04:45:12.849Z,70.22
2018-04-17T04:47:43.475Z,66.78
2018-04-17T04:50:14.100Z,68.43
2018-04-17T04:52:46.100Z,76.47
2018-04-17T04:55:18.333Z,72.55
2018-04-17T04:57:54.922Z,74.12
2018-04-17T05:00:26.010Z,72.55
2018-04-17T05:02:56.912Z,70.68
2018-04-17T05:05:28.503Z,67.47
2018-04-17T05:07:59.349Z,70.22
2018-04-17T05:10:30.427Z,69.90
2018-04-17T05:13:01.486Z,70.60
2018-04-17T05:15:32.504Z,74.30
2018-04-17T05:18:03.340Z,68.22
2018-04-17T05:20:34.226Z,69.85
2018-04-17T05:23:05.019Z,65.12
2018-04-17T05:25:35.899Z,70.47
2018-04-17T05:28:06.728Z,68.40
2018-04-17T05:30:37.610Z,67.97
2018-04-17T05:33:08.556Z,66.43
2018-04-17T05:35:39.557Z,64.00
2018-04-17T05:38:10.488Z,66.95
2018-04-17T05:40:41.675Z,61.67
2018-04-17T05:43:12.580Z,63.87
2018-04-17T05:45:43.355Z,61.63
2018-04-17T05:48:14.144Z,68.53
2018-04-17T05:50:44.981Z,63.78
2018-04-17T05:53:15.975Z,66.50
2018-04-17T05:55:47.175Z,68.20
2018-04-17T05:58:18.268Z,67.72
2018-04-17T06:00:49.142Z,65.50
2018-04-17T06:03:20.023Z,64.35
2018-04-17T06:05:50.885Z,66.43
2018-04-17T06:08:21.753Z,72.12
2018-04-17T06:10:53.160Z,64.60
2018-04-17T06:13:24.688Z,71.07
2018-04-17T06:15:55.696Z,74.90
2018-04-17T06:18:26.845Z,64.97
2018-04-17T06:20:58.717Z,69.55
2018-04-17T06:23:29.820Z,72.70
2018-04-17T06:26:01.146Z,70.50
2018-04-17T06:28:33.051Z,72.35
2018-04-17T06:31:04.999Z,70.47
2018-04-17T06:33:35.736Z,66.07
2018-04-17T06:36:06.629Z,72.32
2018-04-17T06:38:37.469Z,66.22
2018-04-17T06:41:08.376Z,71.53
2018-04-17T06:43:39.069Z,70.68
2018-04-17T06:46:09.906Z,71.15
2018-04-17T06:48:40.798Z,67.65
2018-04-17T06:51:11.655Z,71.03
2018-04-17T06:53:42.769Z,72.37
2018-04-17T06:56:13.866Z,69.15
2018-04-17T06:58:44.704Z,75.18
2018-04-17T07:01:15.507Z,74.50
2018-04-17T07:03:46.854Z,68.78
2018-04-17T07:06:17.601Z,73.65
2018-04-17T07:15:06.927Z,73.12
2018-04-17T07:17:37.651Z,72.75
2018-04-17T07:20:08.634Z,74.20
2018-04-17T07:22:39.712Z,72.75
2018-04-17T07:25:10.994Z,74.15
2018-04-17T07:27:41.929Z,80.10
2018-04-17T07:30:12.829Z,74.80
2018-04-17T07:32:43.541Z,76.00
2018-04-17T07:35:14.278Z,71.32
2018-04-17T07:37:45.069Z,82.47
2018-04-17T07:40:16.025Z,68.78
2018-04-17T07:43:05.490Z,78.20
2018-04-17T07:49:27.781Z,75.32
2018-04-17T07:51:58.749Z,82.35
2018-04-17T07:54:30.453Z,73.93
2018-04-17T07:57:08.256Z,86.15
2018-04-17T07:59:39.800Z,78.20
2018-04-17T08:02:11.253Z,78.43
2018-04-17T08:04:42.035Z,80.85
2018-04-17T08:07:13.082Z,69.87
2018-04-17T08:09:43.870Z,82.35
2018-04-17T08:12:14.744Z,81.80
2018-04-17T08:14:45.493Z,78.45
2018-04-17T08:17:16.649Z,83.72
2018-04-17T08:19:47.493Z,85.50
2018-04-17T08:22:18.397Z,87.28
2018-04-17T08:24:49.201Z,83.62
2018-04-17T08:27:19.977Z,88.82
2018-04-17T08:29:50.781Z,89.37
2018-04-17T08:32:21.566Z,87.60
2018-04-17T08:34:52.301Z,80.40
2018-04-17T08:37:23.556Z,81.93
2018-04-17T08:39:54.571Z,87.70
2018-04-17T08:42:25.422Z,82.20
2018-04-17T08:44:56.230Z,89.72
2018-04-17T08:47:26.962Z,95.90
2018-04-17T08:49:57.754Z,84.70
2018-04-17T08:52:28.735Z,87.80
2018-04-17T08:54:59.511Z,86.22
2018-04-17T08:57:30.387Z,84.72
2018-04-17T09:00:01.149Z,87.35
2018-04-17T09:02:32.072Z,87.93
2018-04-17T09:05:02.929Z,91.30
2018-04-17T09:07:33.957Z,95.50
2018-04-17T09:10:05.490Z,86.90
2018-04-17T09:12:36.600Z,90.15
2018-04-17T09:15:07.450Z,91.75
2018-04-17T09:17:38.490Z,89.53
2018-04-17T09:23:26.320Z,90.68
2018-04-17T09:35:40.601Z,91.35
2018-04-17T09:56:59.691Z,89.28
2018-04-17T10:22:43.971Z,93.72
2018-04-17T10:25:14.553Z,92.95
2018-04-17T10:27:45.425Z,88.57
2018-04-17T10:30:16.841Z,92.68
2018-04-17T10:32:47.620Z,86.20
2018-04-17T10:35:18.257Z,99.55
2018-04-17T10:37:48.884Z,90.95
2018-04-17T10:40:19.697Z,87.45
2018-04-17T10:42:50.831Z,94.95
2018-04-17T10:45:21.689Z,88.80
2018-04-17T10:47:52.494Z,92.82
2018-04-17T10:50:23.429Z,89.65
2018-04-17T10:52:54.256Z,85.03
2018-04-17T10:55:25.212Z,89.32
2018-04-17T10:57:56.835Z,82.55
2018-04-17T11:00:32.187Z,85.25
2018-04-17T11:03:04.438Z,92.10
2018-04-17T11:05:35.283Z,86.93
2018-04-17T11:08:05.965Z,91.70
2018-04-17T11:10:36.598Z,89.55
2018-04-17T11:13:08.778Z,89.68
2018-04-17T11:15:39.758Z,87.82
2018-04-17T11:18:11.723Z,85.68
2018-04-17T11:20:42.491Z,86.72
2018-04-17T11:23:14.511Z,91.10
2018-04-17T11:25:45.613Z,93.65
2018-04-17T11:28:26.888Z,100.38
2018-04-17T11:30:57.925Z,101.97
2018-04-17T11:33:28.780Z,84.93
2018-04-17T11:35:59.772Z,93.22
2018-04-17T11:38:30.671Z,100.32
2018-04-17T11:41:01.541Z,91.70
2018-04-17T11:43:32.360Z,86.05
2018-04-17T11:46:04.077Z,92.35
2018-04-17T11:48:34.851Z,93.03
2018-04-17T11:51:05.567Z,94.55
2018-04-17T11:53:36.298Z,93.30
2018-04-17T11:56:08.117Z,92.40
2018-04-17T11:58:38.780Z,101.35
2018-04-17T12:01:09.634Z,94.80
2018-04-17T12:03:40.691Z,98.65
2018-04-17T12:06:11.507Z,91.87
2018-04-17T12:08:42.272Z,86.80
2018-04-17T12:11:14.366Z,94.65
2018-04-17T12:13:45.436Z,85.93
2018-04-17T12:16:16.843Z,83.20
2018-04-17T12:18:47.724Z,85.68
2018-04-17T12:21:19.215Z,85.10
2018-04-17T12:36:17.780Z,87.30
2018-04-17T12:38:54.648Z,99.15
2018-04-17T12:41:26.117Z,78.95
2018-04-17T12:43:58.044Z,81.28
2018-04-17T12:46:29.113Z,85.38
2018-04-17T12:49:00.386Z,91.15
2018-04-17T12:51:33.397Z,91.63
2018-04-17T12:54:07.397Z,89.72
2018-04-17T12:56:38.961Z,86.95
2018-04-17T12:59:19.339Z,89.35
2018-04-17T13:02:04.529Z,88.25
2018-04-17T13:04:36.236Z,103.15
2018-04-17T13:10:11.659Z,89.70
2018-04-17T13:13:01.660Z,104.15
2018-04-17T13:15:46.502Z,90.03
2018-04-17T14:21:57.199Z,94.55
2018-04-17T14:24:27.877Z,93.40
2018-04-17T14:27:04.613Z,100.05
2018-04-17T14:29:41.340Z,109.95
2018-04-17T14:32:12.120Z,92.03
2018-04-17T14:34:42.749Z,93.43
2018-04-17T14:37:16.690Z,96.10
2018-04-17T14:39:48.053Z,86.82
2018-04-17T14:42:18.919Z,95.47
2018-04-17T14:44:49.821Z,91.63
2018-04-17T14:47:21.110Z,97.62
2018-04-17T14:49:51.896Z,95.85
2018-04-17T14:52:22.648Z,102.00
2018-04-17T14:54:53.365Z,99.03
2018-04-17T14:57:24.187Z,99.13
2018-04-17T14:59:55.008Z,93.50
2018-04-17T15:02:25.910Z,95.53
2018-04-17T15:04:56.822Z,95.15
2018-04-17T15:07:27.973Z,88.80
2018-04-17T15:10:00.687Z,98.97
2018-04-17T15:12:31.497Z,93.00
2018-04-17T15:15:02.196Z,94.55
2018-04-17T15:17:33.918Z,91.30
2018-04-17T15:20:04.531Z,90.82
2018-04-17T15:22:35.300Z,96.55
2018-04-17T15:25:06.169Z,94.40
2018-04-17T15:27:36.929Z,90.03
2018-04-17T15:30:07.610Z,92.95
2018-04-17T15:32:38.268Z,88.95
2018-04-17T15:35:08.930Z,99.57
2018-04-17T15:37:39.647Z,97.97
2018-04-17T15:40:10.543Z,100.47
2018-04-17T15:42:41.197Z,97.35
2018-04-17T15:45:11.925Z,98.65
2018-04-17T15:47:42.593Z,92.30
2018-04-17T15:50:13.754Z,89.90
2018-04-17T15:52:44.563Z,101.25
2018-04-17T15:55:15.331Z,105.63
2018-04-17T15:57:46.275Z,102.03
2018-04-17T16:00:17.152Z,97.90
2018-04-17T16:02:48.066Z,97.50
2018-04-17T16:05:18.926Z,93.87
2018-04-17T16:07:50.092Z,95.57
2018-04-17T16:10:21.139Z,100.15
2018-04-17T16:12:52.310Z,89.62
2018-04-17T16:15:23.077Z,96.57
2018-04-17T16:17:53.858Z,95.32
2018-04-17T16:20:24.729Z,95.00
2018-04-17T16:22:55.723Z,93.47
2018-04-17T16:25:26.820Z,100.50
2018-04-17T16:27:57.881Z,98.32
2018-04-17T16:30:29.560Z,96.10
2018-04-17T16:33:00.742Z,102.85
2018-04-17T16:35:31.772Z,95.07
2018-04-17T16:38:04.162Z,99.47
2018-04-17T16:40:35.209Z,95.87
2018-04-17T16:43:06.899Z,96.65
2018-04-17T16:45:37.865Z,105.53
2018-04-17T16:48:08.649Z,93.87
2018-04-17T16:50:39.596Z,89.30
2018-04-17T16:53:10.488Z,95.15
2018-04-17T16:55:41.423Z,95.60
2018-04-17T16:58:12.320Z,91.82
2018-04-17T17:00:43.400Z,101.25
2018-04-17T17:03:21.037Z,102.57
2018-04-17T17:05:51.782Z,98.93
2018-04-17T17:08:22.589Z,94.43
2018-04-17T17:10:53.280Z,97.25
2018-04-17T17:13:23.891Z,91.68
2018-04-17T17:15:54.487Z,95.18
2018-04-17T17:18:25.151Z,95.03
2018-04-17T17:20:56.525Z,96.35
2018-04-17T17:23:27.816Z,98.22
2018-04-17T17:25:58.491Z,95.18
2018-04-17T17:28:29.111Z,91.47
2018-04-17T17:31:00.064Z,92.53
2018-04-17T17:33:32.180Z,90.25
2018-04-17T17:36:03.969Z,91.45
2018-04-17T17:38:35.750Z,93.82
2018-04-17T17:41:06.672Z,85.28
2018-04-17T17:43:38.030Z,95.53
2018-04-17T17:46:10.041Z,89.65
2018-04-17T17:48:45.279Z,95.85
2018-04-17T17:51:16.754Z,100.60
2018-04-17T17:53:48.295Z,83.78
2018-04-17T17:56:19.765Z,89.40
2018-04-17T17:58:55.788Z,99.60
2018-04-17T18:01:27.654Z,96.00
2018-04-17T18:10:02.092Z,101.00
2018-04-17T18:12:34.420Z,85.40
2018-04-17T18:15:10.622Z,99.78
2018-04-17T18:17:44.371Z,89.15
2018-04-17T18:20:17.088Z,88.47
2018-04-17T18:22:48.396Z,90.47
2018-04-17T18:25:26.053Z,96.63
2018-04-17T18:27:58.406Z,95.62
2018-04-17T18:30:30.129Z,98.85
2018-04-17T18:36:31.150Z,94.68
2018-04-17T18:39:40.328Z,92.93
2018-04-17T18:42:43.814Z,84.55
2018-04-17T18:45:31.194Z,93.40
2018-04-17T18:48:19.782Z,89.68
2018-04-17T18:51:12.041Z,91.95
2018-04-17T18:54:06.045Z,82.50
2018-04-17T18:59:39.063Z,81.50
2018-04-17T19:02:16.463Z,81.25
2018-04-17T19:04:53.016Z,77.75
2018-04-17T19:10:23.085Z,82.85
2018-04-17T19:12:57.942Z,87.00
2018-04-17T19:15:34.189Z,85.20
2018-04-17T19:18:15.798Z,87.05
2018-04-17T19:21:48.114Z,85.35
2018-04-17T19:26:23.531Z,84.00
2018-04-17T19:36:16.317Z,80.80
2018-04-17T19:42:35.171Z,95.90
2018-04-17T19:55:18.743Z,81.90
2018-04-17T19:57:53.500Z,83.72
2018-04-17T20:00:32.707Z,80.00
2018-04-17T20:03:13.105Z,84.30
2018-04-17T20:06:06.290Z,85.53
2018-04-17T20:08:49.381Z,79.00
2018-04-17T20:11:42.901Z,84.85
2018-04-17T20:14:38.791Z,81.35
2018-04-17T20:17:42.879Z,83.55
2018-04-17T20:20:36.573Z,86.40
2018-04-17T20:23:08.567Z,85.38
2018-04-17T20:25:39.348Z,80.28
2018-04-17T20:28:11.063Z,91.40
2018-04-17T20:30:42.332Z,88.28
2018-04-17T20:33:14.067Z,89.37
2018-04-17T20:35:45.051Z,87.90
2018-04-17T20:38:16.149Z,90.32
2018-04-17T20:40:47.053Z,79.35
2018-04-17T20:43:19.364Z,83.22
2018-04-17T20:45:50.415Z,83.80
2018-04-17T20:48:21.645Z,88.35
2018-04-17T20:50:52.653Z,83.50
2018-04-17T20:53:24.827Z,89.75
2018-04-17T20:55:56.051Z,82.90
2018-04-17T20:58:27.359Z,85.68
2018-04-17T21:00:58.209Z,83.62
2018-04-17T21:06:41.308Z,87.82
2018-04-17T21:09:12.472Z,84.68
2018-04-17T21:11:43.325Z,81.30
2018-04-17T21:14:14.057Z,79.22
2018-04-17T21:16:45.093Z,86.78
2018-04-17T21:19:15.984Z,82.12
2018-04-17T21:21:46.986Z,84.40
2018-04-17T21:24:17.730Z,74.60
2018-04-17T21:26:49.120Z,81.70
2018-04-17T21:29:20.071Z,78.40
2018-04-17T21:31:51.596Z,76.97
2018-04-17T21:34:22.604Z,71.78
2018-04-17T21:36:53.804Z,77.37
2018-04-17T21:39:24.978Z,76.93
2018-04-17T21:41:56.028Z,76.25
2018-04-17T21:44:27.589Z,79.03
2018-04-17T21:46:58.637Z,76.62
2018-04-17T21:49:29.782Z,79.40
2018-04-17T21:52:00.924Z,77.90
2018-04-17T21:54:31.864Z,76.18
2018-04-17T21:57:02.732Z,77.90
2018-04-17T21:59:33.637Z,77.78
2018-04-17T22:02:04.797Z,78.45
2018-04-17T22:04:35.640Z,81.18
2018-04-17T22:07:06.572Z,81.07
2018-04-17T22:09:37.433Z,78.45
2018-04-17T22:12:08.416Z,78.10
2018-04-17T22:14:39.312Z,82.22
2018-04-17T22:17:10.261Z,81.53
2018-04-17T22:19:41.165Z,81.87
2018-04-17T22:22:12.564Z,85.15
2018-04-17T22:24:43.593Z,79.45
2018-04-17T22:27:14.513Z,85.10
2018-04-17T22:29:45.277Z,81.70
2018-04-17T22:32:16.450Z,77.60
2018-04-17T22:34:47.220Z,87.47
2018-04-17T22:37:18.555Z,81.70
2018-04-17T22:39:49.465Z,82.03
2018-04-17T22:42:20.505Z,76.72
2018-04-17T22:44:51.370Z,79.55
2018-04-17T22:47:22.445Z,83.90
2018-04-17T22:49:53.619Z,83.93
2018-04-17T22:52:24.820Z,83.47
2018-04-17T22:54:56.033Z,79.80
2018-04-17T22:57:26.916Z,86.03
2018-04-17T22:59:57.781Z,93.50
2018-04-17T23:02:29.051Z,86.97
2018-04-17T23:04:59.867Z,83.53
2018-04-17T23:07:31.126Z,76.35
2018-04-17T23:10:02.057Z,79.62
2018-04-17T23:12:33.902Z,74.93
2018-04-17T23:15:04.819Z,74.95
2018-04-17T23:17:35.697Z,76.43
2018-04-17T23:20:06.453Z,77.05
2018-04-17T23:22:37.312Z,83.32
2018-04-17T23:25:08.085Z,78.00
2018-04-17T23:27:39.183Z,72.43
2018-04-17T23:33:05.116Z,78.70
2018-04-17T23:35:36.021Z,74.15
2018-04-17T23:38:07.216Z,85.40
2018-04-17T23:40:38.058Z,81.32
2018-04-17T23:43:08.930Z,78.22
2018-04-17T23:45:39.757Z,75.57
2018-04-17T23:48:10.572Z,74.45
2018-04-17T23:50:41.649Z,72.40
2018-04-17T23:53:12.495Z,65.00
2018-04-17T23:55:43.186Z,70.50
2018-04-17T23:58:13.963Z,70.32
